Weather History for KHRX - April, 2013

Change the Weather History Date:

Monday, April 22, 2013

  Actual Average (KAMA) Record (KAMA)
Temperature  
Mean Temperature 64 °F 58 °F  
Max Temperature 88 °F 73 °F 98 °F (1989)
Min Temperature 39 °F 44 °F 24 °F (1907)
Degree Days  
Heating Degree Days 1 8  
Month to date heating degree days 229  
Since 1 July heating degree days 4038  
Cooling Degree Days 0 1  
Month to date cooling degree days 8  
Year to date cooling degree days 10  
Growing Degree Days 14 (Base 50)    
Moisture  
Dew Point 29 °F    
Average Humidity 41    
Maximum Humidity 88    
Minimum Humidity 6    
Precipitation  
Precipitation 0.00 in 0.05 in 1.14 in (1913)
Month to date precipitation 0.98  
Year to date precipitation 3.65  
Snow  
Snow 0.00 in 0.00 in 0.80 in (1907)
Month to date snowfall 0.6  
Since 1 July snowfall 17.5  
Snow Depth -    
Sea Level Pressure  
Sea Level Pressure 29.89 in    
Wind  
Wind Speed 17 mph (SW)    
Max Wind Speed 41 mph    
Max Gust Speed 55 mph    
Visibility 9 miles    
Events      
T = Trace of Precipitation, MM = Missing Value Source: NWS Daily Summary

Daily Weather History Graph

Daily Weather History Graph

Search for Another Location

Airport or City:

Trip Planner

Search our weather history database for the weather conditions in past years. The results will help you decide how hot, cold, wet, or windy it might be!

Date:

Astronomy

Apr. 22, 2013 Rise Set
Actual Time 7:08 AM CDT 8:27 PM CDT
Civil Twilight 6:42 AM CDT 8:54 PM CDT
Nautical Twilight 6:10 AM CDT 9:25 PM CDT
Astronomical Twilight 5:37 AM CDT 9:58 PM CDT
Moon 5:25 PM CDT (4/22) 4:56 AM CDT (4/22)
Length of Visible Light 14h 11m
Length of Day
13h 19m
Waxing Gibbous, 88% of the Moon is Illuminated
Apr 22
Waxing Gibbous
Apr 25
Full
May 2
Last Quarter
May 9
New
May 17
First Quarter

Hourly Weather History & Observations

Time (CDT) Temp. Windchill Dew Point Humidity Pressure Visibility Wind Dir Wind Speed Gust Speed Precip Events Conditions
12:15 AM 57.2 °F - 40.1 °F 53% 29.98 in 10.0 mi SE 20.7 mph 31.1 mph N/A   Clear
12:35 AM 56.5 °F - 41.0 °F 56% 29.97 in 10.0 mi SSE 21.9 mph 31.1 mph N/A   Clear
12:55 AM 55.6 °F - 41.5 °F 59% 29.98 in 10.0 mi SSE 19.6 mph 27.6 mph N/A   Clear
1:15 AM 55.4 °F - 42.3 °F 61% 30.00 in 10.0 mi SSE 15.0 mph 21.9 mph N/A   Clear
1:35 AM 54.1 °F - 42.4 °F 65% 29.99 in 10.0 mi SSE 16.1 mph 21.9 mph N/A   Clear
1:55 AM 53.8 °F - 42.8 °F 66% 30.00 in 10.0 mi SSE 18.4 mph 23.0 mph N/A   Clear
2:15 AM 53.6 °F - 43.0 °F 67% 29.99 in 10.0 mi SSE 13.8 mph 25.3 mph N/A   Clear
2:35 AM 53.8 °F - 43.2 °F 67% 29.98 in 10.0 mi South 19.6 mph 24.2 mph N/A   Clear
2:55 AM 52.2 °F - 42.8 °F 70% 29.98 in 10.0 mi SSE 15.0 mph 20.7 mph N/A   Clear
3:35 AM 50.2 °F - 42.4 °F 75% 29.98 in 10.0 mi WSW 3.5 mph - N/A   Clear
3:55 AM 49.5 °F - 42.3 °F 76% 29.97 in 10.0 mi South 9.2 mph - N/A   Clear
4:15 AM 48.0 °F - 42.3 °F 80% 29.95 in 10.0 mi South 13.8 mph - N/A   Clear
4:35 AM 48.4 °F - 42.1 °F 79% 29.95 in 10.0 mi South 9.2 mph - N/A   Clear
4:55 AM 48.2 °F - 42.3 °F 80% 29.95 in 10.0 mi South 11.5 mph - N/A   Clear
5:15 AM 48.0 °F - 42.4 °F 81% 29.94 in 10.0 mi South 8.1 mph - N/A   Clear
5:35 AM 48.6 °F - 43.0 °F 81% 29.94 in 10.0 mi South 6.9 mph - N/A   Clear
5:55 AM 48.4 °F - 43.0 °F 82% 29.95 in 10.0 mi SSW 3.5 mph - N/A   Clear
6:15 AM 47.5 °F - 42.3 °F 82% 29.94 in 10.0 mi South 5.8 mph - N/A   Clear
6:35 AM 45.9 °F 42.3 °F 41.9 °F 86% 29.93 in 10.0 mi South 6.9 mph - N/A   Clear
6:55 AM 45.5 °F 42.5 °F 41.5 °F 86% 29.94 in 10.0 mi SSW 5.8 mph - N/A   Clear
7:15 AM 44.2 °F 39.2 °F 40.3 °F 86% 29.94 in 10.0 mi SSW 9.2 mph - N/A   Clear
7:35 AM 44.8 °F 40.4 °F 41.4 °F 88% 29.94 in 10.0 mi SSW 8.1 mph - N/A   Clear
7:55 AM 45.5 °F 42.5 °F 41.4 °F 85% 29.94 in 10.0 mi SSW 5.8 mph - N/A   Clear
8:35 AM 49.6 °F - 41.0 °F 72% 29.95 in 10.0 mi SW 11.5 mph - N/A   Clear
8:55 AM 52.0 °F - 38.7 °F 60% 29.95 in 10.0 mi SSW 11.5 mph - N/A   Clear
9:15 AM 55.8 °F - 35.1 °F 46% 29.95 in 10.0 mi SW 12.7 mph - N/A   Clear
9:35 AM 59.2 °F - 33.3 °F 38% 29.95 in 10.0 mi SW 12.7 mph - N/A   Clear
9:55 AM 62.4 °F - 32.0 °F 32% 29.94 in 10.0 mi SW 9.2 mph - N/A   Clear
10:15 AM 67.1 °F - 26.8 °F 22% 29.94 in 10.0 mi SW 11.5 mph - N/A   Clear
10:35 AM 70.7 °F - 23.4 °F 17% 29.94 in 10.0 mi WSW 13.8 mph 18.4 mph N/A   Clear
10:55 AM 74.1 °F - 22.6 °F 15% 29.94 in 10.0 mi WSW 13.8 mph - N/A   Clear
11:15 AM 75.4 °F - 23.4 °F 14% 29.93 in 10.0 mi SW 12.7 mph - N/A   Clear
11:35 AM 78.6 °F - 21.0 °F 12% 29.92 in 10.0 mi North - - N/A   Clear
11:55 AM 78.6 °F - 22.1 °F 12% 29.91 in 10.0 mi North - - N/A   Clear
12:15 PM 79.7 °F - 23.4 °F 12% 29.91 in 10.0 mi SSW 13.8 mph 20.7 mph N/A   Clear
12:35 PM 82.0 °F - 17.6 °F 9% 29.90 in 10.0 mi West 20.7 mph 28.8 mph N/A   Clear
12:55 PM 82.8 °F - 16.9 °F 9% 29.89 in 10.0 mi West 19.6 mph 29.9 mph N/A   Clear
1:15 PM 83.5 °F - 17.1 °F 8% 29.88 in 10.0 mi WNW 20.7 mph 28.8 mph N/A   Clear
1:35 PM 84.4 °F - 17.4 °F 8% 29.87 in 10.0 mi West 17.3 mph 23.0 mph N/A   Clear
1:55 PM 85.5 °F - 16.7 °F 8% 29.85 in 10.0 mi West 18.4 mph 28.8 mph N/A   Clear
2:15 PM 86.2 °F - 16.2 °F 7% 29.84 in 10.0 mi West 20.7 mph 29.9 mph N/A   Clear
2:35 PM 86.5 °F - 16.5 °F 7% 29.83 in 10.0 mi West 18.4 mph 28.8 mph N/A   Clear
2:55 PM 87.3 °F - 16.2 °F 7% 29.82 in 10.0 mi West 17.3 mph 27.6 mph N/A   Clear
3:15 PM 87.8 °F - 16.5 °F 7% 29.82 in 10.0 mi West 26.5 mph - N/A   Clear
3:35 PM 87.1 °F - 16.9 °F 7% 29.81 in 10.0 mi West 13.8 mph 29.9 mph N/A   Clear
3:55 PM 87.8 °F - 16.3 °F 7% 29.80 in 10.0 mi North - - N/A   Clear
4:15 PM 88.0 °F - 15.8 °F 7% 29.79 in 10.0 mi West 16.1 mph 25.3 mph N/A   Clear
4:35 PM 87.3 °F - 16.3 °F 7% 29.77 in 10.0 mi West 11.5 mph - N/A   Clear
4:55 PM 87.6 °F - 16.2 °F 7% 29.76 in 10.0 mi North - - N/A   Clear
5:15 PM 87.4 °F - 14.9 °F 7% 29.75 in 10.0 mi West 19.6 mph - N/A   Clear
5:35 PM 88.3 °F - 14.7 °F 7% 29.75 in 10.0 mi West 19.6 mph - N/A   Clear
5:55 PM 88.0 °F - 14.7 °F 7% 29.74 in 10.0 mi West 18.4 mph - N/A   Clear
6:15 PM 88.0 °F - 14.2 °F 6% 29.73 in 10.0 mi North - - N/A   Clear
6:35 PM 87.4 °F - 13.5 °F 6% 29.72 in 10.0 mi North - - N/A   Clear
6:55 PM 87.1 °F - 13.1 °F 6% 29.72 in 10.0 mi North - - N/A   Clear
7:15 PM 86.5 °F - 12.9 °F 6% 29.72 in 10.0 mi West 21.9 mph 27.6 mph N/A   Clear
7:35 PM 85.3 °F - 14.2 °F 7% 29.72 in 10.0 mi North - - N/A   Clear
7:55 PM 83.3 °F - 14.7 °F 8% 29.73 in 10.0 mi North - - N/A   Clear
8:15 PM 81.3 °F - 14.7 °F 8% 29.73 in 7.0 mi North - - N/A   Clear
8:35 PM 77.9 °F - 14.9 °F 9% 29.73 in 3.0 mi WSW 9.2 mph - N/A   Haze
8:55 PM 72.5 °F - 15.8 °F 12% 29.74 in 4.0 mi WSW 6.9 mph - N/A   Haze
9:15 PM 65.3 °F - 40.6 °F 40% 29.79 in 2.5 mi NNE 36.8 mph 49.5 mph N/A   Haze
9:35 PM 58.1 °F - 41.0 °F 53% 29.84 in 3.0 mi NNE 41.4 mph 55.2 mph N/A   Haze
9:55 PM 53.2 °F - 39.6 °F 60% 29.89 in 4.0 mi NNE 32.2 mph 49.5 mph N/A   Haze
10:15 PM 48.4 °F - 37.8 °F 67% 29.91 in 5.0 mi NNE 36.8 mph 46.0 mph N/A   Haze
10:35 PM 46.9 °F - 36.7 °F 68% 29.93 in 7.0 mi NNE 38.0 mph 46.0 mph N/A   Overcast
10:55 PM 45.0 °F 34.4 °F 35.8 °F 70% 29.96 in 7.0 mi NNE 35.7 mph 46.0 mph N/A   Overcast
11:15 PM 41.9 °F 29.9 °F 33.8 °F 73% 29.97 in 7.0 mi NNE 38.0 mph 46.0 mph N/A   Overcast
11:35 PM 40.6 °F 28.5 °F 32.9 °F 74% 29.99 in 10.0 mi NNE 35.7 mph 43.7 mph N/A   Overcast
11:55 PM 39.7 °F 27.8 °F 32.0 °F 74% 30.00 in 10.0 mi NNE 32.2 mph 42.6 mph N/A   Overcast